sensor_id;sensor_type;location;lat;lon;timestamp;temperature;humidity
54788;DHT22;59598;48.112;16.280;2023-05-10T00:02:30;9.50;1.00
54788;DHT22;59598;48.112;16.280;2023-05-10T00:05:07;9.50;1.00
54788;DHT22;59598;48.112;16.280;2023-05-10T00:07:44;9.40;1.00
54788;DHT22;59598;48.112;16.280;2023-05-10T00:10:19;9.40;1.00
54788;DHT22;59598;48.112;16.280;2023-05-10T00:12:53;9.30;1.00
54788;DHT22;59598;48.112;16.280;2023-05-10T00:15:24;9.30;1.00
54788;DHT22;59598;48.112;16.280;2023-05-10T00:18:05;9.20;1.00
54788;DHT22;59598;48.112;16.280;2023-05-10T00:20:39;9.10;1.00
54788;DHT22;59598;48.112;16.280;2023-05-10T00:23:11;9.10;1.00
54788;DHT22;59598;48.112;16.280;2023-05-10T00:25:45;9.20;1.00
54788;DHT22;59598;48.112;16.280;2023-05-10T00:28:21;9.00;1.00
54788;DHT22;59598;48.112;16.280;2023-05-10T00:30:55;9.00;1.00
54788;DHT22;59598;48.112;16.280;2023-05-10T00:33:29;8.90;1.00
54788;DHT22;59598;48.112;16.280;2023-05-10T00:36:03;9.00;1.00
54788;DHT22;59598;48.112;16.280;2023-05-10T00:38:40;9.00;1.00
54788;DHT22;59598;48.112;16.280;2023-05-10T00:41:17;9.00;1.00
54788;DHT22;59598;48.112;16.280;2023-05-10T00:43:48;9.00;1.00
54788;DHT22;59598;48.112;16.280;2023-05-10T00:46:20;8.90;1.00
54788;DHT22;59598;48.112;16.280;2023-05-10T00:48:54;8.80;1.00
54788;DHT22;59598;48.112;16.280;2023-05-10T00:51:26;8.70;1.00
54788;DHT22;59598;48.112;16.280;2023-05-10T00:54:02;8.70;1.00
54788;DHT22;59598;48.112;16.280;2023-05-10T00:56:36;8.60;1.00
54788;DHT22;59598;48.112;16.280;2023-05-10T00:59:10;8.70;1.00
54788;DHT22;59598;48.112;16.280;2023-05-10T01:01:42;8.70;1.00
54788;DHT22;59598;48.112;16.280;2023-05-10T01:04:16;8.60;1.00
54788;DHT22;59598;48.112;16.280;2023-05-10T01:06:48;8.60;1.00
54788;DHT22;59598;48.112;16.280;2023-05-10T01:09:22;8.60;1.00
54788;DHT22;59598;48.112;16.280;2023-05-10T01:11:54;8.60;1.00
54788;DHT22;59598;48.112;16.280;2023-05-10T01:14:26;8.70;1.00
54788;DHT22;59598;48.112;16.280;2023-05-10T01:16:58;8.70;1.00
54788;DHT22;59598;48.112;16.280;2023-05-10T01:19:32;8.60;1.00
54788;DHT22;59598;48.112;16.280;2023-05-10T01:36:32;8.70;1.00
54788;DHT22;59598;48.112;16.280;2023-05-10T01:39:11;8.70;1.00
54788;DHT22;59598;48.112;16.280;2023-05-10T01:41:55;8.60;1.00
54788;DHT22;59598;48.112;16.280;2023-05-10T01:45:02;8.60;1.00
54788;DHT22;59598;48.112;16.280;2023-05-10T01:47:46;8.50;1.00
54788;DHT22;59598;48.112;16.280;2023-05-10T01:53:17;8.60;1.00
54788;DHT22;59598;48.112;16.280;2023-05-10T01:55:55;8.60;1.00
54788;DHT22;59598;48.112;16.280;2023-05-10T01:58:30;8.50;1.00
54788;DHT22;59598;48.112;16.280;2023-05-10T02:01:03;8.50;1.00
54788;DHT22;59598;48.112;16.280;2023-05-10T02:03:58;8.40;1.00
54788;DHT22;59598;48.112;16.280;2023-05-10T02:09:24;8.10;1.00
54788;DHT22;59598;48.112;16.280;2023-05-10T02:11:58;8.10;1.00
54788;DHT22;59598;48.112;16.280;2023-05-10T02:14:32;8.10;1.00
54788;DHT22;59598;48.112;16.280;2023-05-10T02:17:11;8.10;1.00
54788;DHT22;59598;48.112;16.280;2023-05-10T02:19:47;8.10;1.00
54788;DHT22;59598;48.112;16.280;2023-05-10T02:22:19;8.10;1.00
54788;DHT22;59598;48.112;16.280;2023-05-10T02:25:02;8.00;1.00
54788;DHT22;59598;48.112;16.280;2023-05-10T02:27:37;8.00;1.00
54788;DHT22;59598;48.112;16.280;2023-05-10T02:30:12;8.10;1.00
54788;DHT22;59598;48.112;16.280;2023-05-10T02:32:44;8.10;1.00
54788;DHT22;59598;48.112;16.280;2023-05-10T02:35:15;8.10;1.00
54788;DHT22;59598;48.112;16.280;2023-05-10T02:37:53;8.00;1.00
54788;DHT22;59598;48.112;16.280;2023-05-10T02:40:30;8.00;1.00
54788;DHT22;59598;48.112;16.280;2023-05-10T02:43:04;8.00;1.00
54788;DHT22;59598;48.112;16.280;2023-05-10T02:48:34;8.00;1.00
54788;DHT22;59598;48.112;16.280;2023-05-10T02:51:09;7.90;1.00
54788;DHT22;59598;48.112;16.280;2023-05-10T02:53:48;7.80;1.00
54788;DHT22;59598;48.112;16.280;2023-05-10T02:56:28;7.80;1.00
54788;DHT22;59598;48.112;16.280;2023-05-10T02:59:06;7.80;1.00
54788;DHT22;59598;48.112;16.280;2023-05-10T03:01:43;7.80;1.00
54788;DHT22;59598;48.112;16.280;2023-05-10T03:04:15;7.70;1.00
54788;DHT22;59598;48.112;16.280;2023-05-10T03:06:48;7.70;11.10
54788;DHT22;59598;48.112;16.280;2023-05-10T03:09:22;7.80;1.00
54788;DHT22;59598;48.112;16.280;2023-05-10T03:12:19;7.80;1.00
54788;DHT22;59598;48.112;16.280;2023-05-10T03:15:17;7.80;1.00
54788;DHT22;59598;48.112;16.280;2023-05-10T03:18:01;7.90;1.00
54788;DHT22;59598;48.112;16.280;2023-05-10T03:20:47;7.80;1.00
54788;DHT22;59598;48.112;16.280;2023-05-10T03:29:34;7.80;2.60
54788;DHT22;59598;48.112;16.280;2023-05-10T03:32:07;7.80;29.40
54788;DHT22;59598;48.112;16.280;2023-05-10T03:34:41;7.80;39.40
54788;DHT22;59598;48.112;16.280;2023-05-10T03:37:13;7.80;36.50
54788;DHT22;59598;48.112;16.280;2023-05-10T03:39:47;7.90;33.20
54788;DHT22;59598;48.112;16.280;2023-05-10T03:42:18;7.90;24.50
54788;DHT22;59598;48.112;16.280;2023-05-10T03:44:52;8.00;26.60
54788;DHT22;59598;48.112;16.280;2023-05-10T03:47:23;8.00;34.20
54788;DHT22;59598;48.112;16.280;2023-05-10T03:49:57;8.10;24.40
54788;DHT22;59598;48.112;16.280;2023-05-10T03:52:30;8.10;7.70
54788;DHT22;59598;48.112;16.280;2023-05-10T03:55:09;8.20;1.00
54788;DHT22;59598;48.112;16.280;2023-05-10T03:57:41;8.30;1.00
54788;DHT22;59598;48.112;16.280;2023-05-10T04:00:20;8.40;1.00
54788;DHT22;59598;48.112;16.280;2023-05-10T04:02:51;8.50;1.00
54788;DHT22;59598;48.112;16.280;2023-05-10T04:05:23;8.70;1.00
54788;DHT22;59598;48.112;16.280;2023-05-10T04:07:57;8.80;1.00
54788;DHT22;59598;48.112;16.280;2023-05-10T04:10:30;8.90;1.00
54788;DHT22;59598;48.112;16.280;2023-05-10T04:13:05;9.10;1.00
54788;DHT22;59598;48.112;16.280;2023-05-10T04:15:38;9.20;1.00
54788;DHT22;59598;48.112;16.280;2023-05-10T04:18:09;9.40;1.00
54788;DHT22;59598;48.112;16.280;2023-05-10T04:20:41;9.50;1.00
54788;DHT22;59598;48.112;16.280;2023-05-10T04:23:15;9.70;1.00
54788;DHT22;59598;48.112;16.280;2023-05-10T04:25:49;9.90;1.00
54788;DHT22;59598;48.112;16.280;2023-05-10T04:28:25;10.10;1.00
54788;DHT22;59598;48.112;16.280;2023-05-10T04:31:02;10.30;1.00
54788;DHT22;59598;48.112;16.280;2023-05-10T04:33:37;10.40;1.00
54788;DHT22;59598;48.112;16.280;2023-05-10T04:36:11;10.60;1.00
54788;DHT22;59598;48.112;16.280;2023-05-10T04:38:45;10.80;1.00
54788;DHT22;59598;48.112;16.280;2023-05-10T04:41:21;11.00;1.00
54788;DHT22;59598;48.112;16.280;2023-05-10T04:43:53;11.20;1.00
54788;DHT22;59598;48.112;16.280;2023-05-10T04:46:26;11.40;1.00
54788;DHT22;59598;48.112;16.280;2023-05-10T04:48:59;11.60;1.00
54788;DHT22;59598;48.112;16.280;2023-05-10T04:51:30;11.60;1.00
54788;DHT22;59598;48.112;16.280;2023-05-10T04:54:02;11.70;1.00
54788;DHT22;59598;48.112;16.280;2023-05-10T04:56:34;11.80;1.00
54788;DHT22;59598;48.112;16.280;2023-05-10T04:59:05;11.90;1.00
54788;DHT22;59598;48.112;16.280;2023-05-10T05:01:36;12.10;1.00
54788;DHT22;59598;48.112;16.280;2023-05-10T05:04:08;12.20;1.00
54788;DHT22;59598;48.112;16.280;2023-05-10T05:06:39;12.20;1.00
54788;DHT22;59598;48.112;16.280;2023-05-10T05:09:13;12.40;1.00
54788;DHT22;59598;48.112;16.280;2023-05-10T05:11:51;12.60;1.00
54788;DHT22;59598;48.112;16.280;2023-05-10T05:14:22;12.80;1.00
54788;DHT22;59598;48.112;16.280;2023-05-10T05:16:58;13.20;1.00
54788;DHT22;59598;48.112;16.280;2023-05-10T05:19:30;13.50;1.00
54788;DHT22;59598;48.112;16.280;2023-05-10T05:22:02;13.60;1.00
54788;DHT22;59598;48.112;16.280;2023-05-10T05:24:42;13.90;1.00
54788;DHT22;59598;48.112;16.280;2023-05-10T05:27:16;14.20;1.00
54788;DHT22;59598;48.112;16.280;2023-05-10T05:29:57;14.40;1.00
54788;DHT22;59598;48.112;16.280;2023-05-10T05:32:29;14.40;1.00
54788;DHT22;59598;48.112;16.280;2023-05-10T05:35:01;14.30;1.00
54788;DHT22;59598;48.112;16.280;2023-05-10T05:37:35;14.40;1.00
54788;DHT22;59598;48.112;16.280;2023-05-10T05:40:06;14.60;1.00
54788;DHT22;59598;48.112;16.280;2023-05-10T05:42:46;15.00;1.00
54788;DHT22;59598;48.112;16.280;2023-05-10T05:45:17;15.30;1.00
54788;DHT22;59598;48.112;16.280;2023-05-10T05:47:49;15.60;1.00
54788;DHT22;59598;48.112;16.280;2023-05-10T05:50:20;15.70;1.00
54788;DHT22;59598;48.112;16.280;2023-05-10T05:52:51;15.80;1.00
54788;DHT22;59598;48.112;16.280;2023-05-10T05:55:28;16.10;1.00
54788;DHT22;59598;48.112;16.280;2023-05-10T05:58:02;16.30;1.00
54788;DHT22;59598;48.112;16.280;2023-05-10T06:00:34;16.00;1.00
54788;DHT22;59598;48.112;16.280;2023-05-10T06:03:10;16.00;1.00
54788;DHT22;59598;48.112;16.280;2023-05-10T06:05:42;16.10;1.00
54788;DHT22;59598;48.112;16.280;2023-05-10T06:08:15;15.90;1.00
54788;DHT22;59598;48.112;16.280;2023-05-10T06:10:50;16.20;1.00
54788;DHT22;59598;48.112;16.280;2023-05-10T06:13:21;16.10;1.00
54788;DHT22;59598;48.112;16.280;2023-05-10T06:15:55;16.30;1.00
54788;DHT22;59598;48.112;16.280;2023-05-10T06:18:30;16.50;1.00
54788;DHT22;59598;48.112;16.280;2023-05-10T06:21:05;16.60;1.00
54788;DHT22;59598;48.112;16.280;2023-05-10T06:23:39;16.70;1.00
54788;DHT22;59598;48.112;16.280;2023-05-10T06:26:26;16.80;1.00
54788;DHT22;59598;48.112;16.280;2023-05-10T06:29:00;16.80;1.00
54788;DHT22;59598;48.112;16.280;2023-05-10T06:31:45;17.20;1.00
54788;DHT22;59598;48.112;16.280;2023-05-10T06:34:23;17.00;1.00
54788;DHT22;59598;48.112;16.280;2023-05-10T06:36:57;16.80;1.00
54788;DHT22;59598;48.112;16.280;2023-05-10T06:39:28;17.00;1.00
54788;DHT22;59598;48.112;16.280;2023-05-10T06:42:07;17.00;1.00
54788;DHT22;59598;48.112;16.280;2023-05-10T06:44:39;17.20;1.00
54788;DHT22;59598;48.112;16.280;2023-05-10T06:47:18;17.50;1.00
54788;DHT22;59598;48.112;16.280;2023-05-10T06:49:51;17.70;1.00
54788;DHT22;59598;48.112;16.280;2023-05-10T06:52:31;17.90;1.00
54788;DHT22;59598;48.112;16.280;2023-05-10T06:55:03;17.70;1.00
54788;DHT22;59598;48.112;16.280;2023-05-10T06:57:39;17.60;1.00
54788;DHT22;59598;48.112;16.280;2023-05-10T07:00:13;17.40;1.00
54788;DHT22;59598;48.112;16.280;2023-05-10T07:02:45;17.50;1.00
54788;DHT22;59598;48.112;16.280;2023-05-10T07:05:16;17.50;1.00
54788;DHT22;59598;48.112;16.280;2023-05-10T07:07:48;17.70;1.00
54788;DHT22;59598;48.112;16.280;2023-05-10T07:10:19;17.60;1.00
54788;DHT22;59598;48.112;16.280;2023-05-10T07:12:54;17.50;1.00
54788;DHT22;59598;48.112;16.280;2023-05-10T07:15:37;17.80;1.00
54788;DHT22;59598;48.112;16.280;2023-05-10T07:18:09;17.90;1.00
54788;DHT22;59598;48.112;16.280;2023-05-10T07:20:41;18.20;1.00
54788;DHT22;59598;48.112;16.280;2023-05-10T07:23:12;18.10;1.00
54788;DHT22;59598;48.112;16.280;2023-05-10T07:25:52;18.30;1.00
54788;DHT22;59598;48.112;16.280;2023-05-10T07:28:27;18.10;1.00
54788;DHT22;59598;48.112;16.280;2023-05-10T07:30:59;18.00;1.00
54788;DHT22;59598;48.112;16.280;2023-05-10T07:33:31;18.10;1.00
54788;DHT22;59598;48.112;16.280;2023-05-10T07:36:02;17.90;1.00
54788;DHT22;59598;48.112;16.280;2023-05-10T07:38:36;18.20;1.00
54788;DHT22;59598;48.112;16.280;2023-05-10T07:41:11;18.20;1.00
54788;DHT22;59598;48.112;16.280;2023-05-10T07:43:45;18.40;1.00
54788;DHT22;59598;48.112;16.280;2023-05-10T07:46:16;18.10;1.00
54788;DHT22;59598;48.112;16.280;2023-05-10T07:48:50;18.30;1.00
54788;DHT22;59598;48.112;16.280;2023-05-10T07:51:21;18.60;1.00
54788;DHT22;59598;48.112;16.280;2023-05-10T07:53:53;18.80;1.00
54788;DHT22;59598;48.112;16.280;2023-05-10T07:56:30;19.10;1.00
54788;DHT22;59598;48.112;16.280;2023-05-10T07:59:03;19.40;1.00
54788;DHT22;59598;48.112;16.280;2023-05-10T08:01:37;19.00;1.00
54788;DHT22;59598;48.112;16.280;2023-05-10T08:04:09;18.70;1.00
54788;DHT22;59598;48.112;16.280;2023-05-10T08:06:40;18.50;1.00
54788;DHT22;59598;48.112;16.280;2023-05-10T08:09:14;18.60;1.00
54788;DHT22;59598;48.112;16.280;2023-05-10T08:11:46;18.80;1.00
54788;DHT22;59598;48.112;16.280;2023-05-10T08:14:23;18.90;1.00
54788;DHT22;59598;48.112;16.280;2023-05-10T08:17:01;18.70;1.00
54788;DHT22;59598;48.112;16.280;2023-05-10T08:19:32;19.20;1.00
54788;DHT22;59598;48.112;16.280;2023-05-10T08:22:05;19.30;1.00
54788;DHT22;59598;48.112;16.280;2023-05-10T08:24:42;19.20;1.00
54788;DHT22;59598;48.112;16.280;2023-05-10T08:27:14;19.70;1.00
54788;DHT22;59598;48.112;16.280;2023-05-10T08:29:48;20.20;1.00
54788;DHT22;59598;48.112;16.280;2023-05-10T08:32:22;19.70;1.00
54788;DHT22;59598;48.112;16.280;2023-05-10T08:34:56;20.40;1.00
54788;DHT22;59598;48.112;16.280;2023-05-10T08:37:34;20.20;1.00
54788;DHT22;59598;48.112;16.280;2023-05-10T08:40:08;20.00;1.00
54788;DHT22;59598;48.112;16.280;2023-05-10T08:42:47;20.00;1.00
54788;DHT22;59598;48.112;16.280;2023-05-10T08:48:25;20.50;1.00
54788;DHT22;59598;48.112;16.280;2023-05-10T08:51:00;21.40;1.00
54788;DHT22;59598;48.112;16.280;2023-05-10T08:53:32;20.80;1.00
54788;DHT22;59598;48.112;16.280;2023-05-10T08:56:08;19.70;1.00
54788;DHT22;59598;48.112;16.280;2023-05-10T08:58:44;19.80;1.00
54788;DHT22;59598;48.112;16.280;2023-05-10T09:01:18;20.00;1.00
54788;DHT22;59598;48.112;16.280;2023-05-10T09:04:31;20.70;1.00
54788;DHT22;59598;48.112;16.280;2023-05-10T09:07:05;21.10;1.00
54788;DHT22;59598;48.112;16.280;2023-05-10T09:09:40;21.10;1.00
54788;DHT22;59598;48.112;16.280;2023-05-10T09:12:14;20.70;1.00
54788;DHT22;59598;48.112;16.280;2023-05-10T09:14:48;20.90;1.00
54788;DHT22;59598;48.112;16.280;2023-05-10T09:17:23;20.80;1.00
54788;DHT22;59598;48.112;16.280;2023-05-10T09:20:02;21.50;1.00
54788;DHT22;59598;48.112;16.280;2023-05-10T09:22:34;21.60;1.00
54788;DHT22;59598;48.112;16.280;2023-05-10T09:25:11;21.70;1.00
54788;DHT22;59598;48.112;16.280;2023-05-10T09:27:47;21.30;1.00
54788;DHT22;59598;48.112;16.280;2023-05-10T09:30:26;20.50;1.00
54788;DHT22;59598;48.112;16.280;2023-05-10T09:32:59;20.70;1.00
54788;DHT22;59598;48.112;16.280;2023-05-10T09:35:33;21.50;1.00
54788;DHT22;59598;48.112;16.280;2023-05-10T09:38:08;21.20;1.00
54788;DHT22;59598;48.112;16.280;2023-05-10T09:40:44;21.20;1.00
54788;DHT22;59598;48.112;16.280;2023-05-10T09:43:25;21.20;1.00
54788;DHT22;59598;48.112;16.280;2023-05-10T09:49:24;21.70;1.00
54788;DHT22;59598;48.112;16.280;2023-05-10T09:51:59;22.10;1.00
54788;DHT22;59598;48.112;16.280;2023-05-10T09:54:32;22.00;1.00
54788;DHT22;59598;48.112;16.280;2023-05-10T09:57:04;21.00;1.00
54788;DHT22;59598;48.112;16.280;2023-05-10T09:59:35;21.00;1.00
54788;DHT22;59598;48.112;16.280;2023-05-10T10:02:16;21.10;1.00
54788;DHT22;59598;48.112;16.280;2023-05-10T10:04:50;21.70;1.00
54788;DHT22;59598;48.112;16.280;2023-05-10T10:07:23;21.80;1.00
54788;DHT22;59598;48.112;16.280;2023-05-10T10:09:56;21.80;1.00
54788;DHT22;59598;48.112;16.280;2023-05-10T10:12:34;21.90;1.00
54788;DHT22;59598;48.112;16.280;2023-05-10T10:15:08;22.50;1.00
54788;DHT22;59598;48.112;16.280;2023-05-10T10:17:42;22.60;1.00
54788;DHT22;59598;48.112;16.280;2023-05-10T10:20:14;22.80;1.00
54788;DHT22;59598;48.112;16.280;2023-05-10T10:22:49;22.70;1.00
54788;DHT22;59598;48.112;16.280;2023-05-10T10:25:20;22.70;1.00
54788;DHT22;59598;48.112;16.280;2023-05-10T10:33:28;22.20;1.00
54788;DHT22;59598;48.112;16.280;2023-05-10T10:36:05;23.00;1.00
54788;DHT22;59598;48.112;16.280;2023-05-10T10:41:35;24.00;1.00
54788;DHT22;59598;48.112;16.280;2023-05-10T10:49:50;24.20;1.00
54788;DHT22;59598;48.112;16.280;2023-05-10T10:55:17;23.50;1.00
54788;DHT22;59598;48.112;16.280;2023-05-10T10:57:50;24.10;1.00
54788;DHT22;59598;48.112;16.280;2023-05-10T11:00:30;23.80;1.00
54788;DHT22;59598;48.112;16.280;2023-05-10T11:03:03;23.70;1.00
54788;DHT22;59598;48.112;16.280;2023-05-10T11:05:43;23.40;1.00
54788;DHT22;59598;48.112;16.280;2023-05-10T11:08:28;23.20;1.00
54788;DHT22;59598;48.112;16.280;2023-05-10T11:13:40;24.40;1.00
54788;DHT22;59598;48.112;16.280;2023-05-10T11:19:02;23.00;1.00
54788;DHT22;59598;48.112;16.280;2023-05-10T11:21:50;24.00;1.00
54788;DHT22;59598;48.112;16.280;2023-05-10T11:24:26;25.20;1.00
54788;DHT22;59598;48.112;16.280;2023-05-10T11:26:58;25.20;1.00
54788;DHT22;59598;48.112;16.280;2023-05-10T11:29:33;24.30;1.00
54788;DHT22;59598;48.112;16.280;2023-05-10T11:32:04;22.80;1.00
54788;DHT22;59598;48.112;16.280;2023-05-10T11:34:39;23.60;1.00
54788;DHT22;59598;48.112;16.280;2023-05-10T11:37:20;23.40;1.00
54788;DHT22;59598;48.112;16.280;2023-05-10T11:39:51;22.70;1.00
54788;DHT22;59598;48.112;16.280;2023-05-10T11:42:27;22.40;1.00
54788;DHT22;59598;48.112;16.280;2023-05-10T11:45:02;22.20;1.00
54788;DHT22;59598;48.112;16.280;2023-05-10T11:47:33;22.90;1.00
54788;DHT22;59598;48.112;16.280;2023-05-10T11:50:12;22.70;1.00
54788;DHT22;59598;48.112;16.280;2023-05-10T11:52:43;22.50;1.00
54788;DHT22;59598;48.112;16.280;2023-05-10T11:55:17;22.50;1.00
54788;DHT22;59598;48.112;16.280;2023-05-10T11:57:59;23.20;1.00
54788;DHT22;59598;48.112;16.280;2023-05-10T12:00:58;23.60;1.00
54788;DHT22;59598;48.112;16.280;2023-05-10T12:03:30;24.20;1.00
54788;DHT22;59598;48.112;16.280;2023-05-10T12:06:13;24.70;1.00
54788;DHT22;59598;48.112;16.280;2023-05-10T12:08:48;25.80;1.00
54788;DHT22;59598;48.112;16.280;2023-05-10T12:11:27;24.00;1.00
54788;DHT22;59598;48.112;16.280;2023-05-10T12:14:03;24.00;1.00
54788;DHT22;59598;48.112;16.280;2023-05-10T12:16:35;23.80;1.00
54788;DHT22;59598;48.112;16.280;2023-05-10T12:19:10;23.40;1.00
54788;DHT22;59598;48.112;16.280;2023-05-10T12:21:44;22.90;1.00
54788;DHT22;59598;48.112;16.280;2023-05-10T12:24:15;22.10;1.00
54788;DHT22;59598;48.112;16.280;2023-05-10T12:26:49;21.30;1.00
54788;DHT22;59598;48.112;16.280;2023-05-10T12:29:22;21.60;1.00
54788;DHT22;59598;48.112;16.280;2023-05-10T12:31:58;22.60;1.00
54788;DHT22;59598;48.112;16.280;2023-05-10T12:34:33;23.20;1.00
54788;DHT22;59598;48.112;16.280;2023-05-10T12:37:08;23.70;1.00
54788;DHT22;59598;48.112;16.280;2023-05-10T12:39:40;24.50;1.00
54788;DHT22;59598;48.112;16.280;2023-05-10T12:42:15;24.70;1.00
54788;DHT22;59598;48.112;16.280;2023-05-10T12:44:49;25.80;1.00
54788;DHT22;59598;48.112;16.280;2023-05-10T12:47:23;25.90;1.00
54788;DHT22;59598;48.112;16.280;2023-05-10T12:49:55;25.70;1.00
54788;DHT22;59598;48.112;16.280;2023-05-10T12:52:27;27.20;1.00
54788;DHT22;59598;48.112;16.280;2023-05-10T12:55:03;27.10;1.00
54788;DHT22;59598;48.112;16.280;2023-05-10T12:57:35;26.40;1.00
54788;DHT22;59598;48.112;16.280;2023-05-10T13:00:11;25.60;1.00
54788;DHT22;59598;48.112;16.280;2023-05-10T13:02:51;25.70;1.00
54788;DHT22;59598;48.112;16.280;2023-05-10T13:05:24;25.20;1.00
54788;DHT22;59598;48.112;16.280;2023-05-10T13:07:58;25.60;1.00
54788;DHT22;59598;48.112;16.280;2023-05-10T13:10:30;27.10;1.00
54788;DHT22;59598;48.112;16.280;2023-05-10T13:13:04;28.00;1.00
54788;DHT22;59598;48.112;16.280;2023-05-10T13:15:36;27.50;1.00
54788;DHT22;59598;48.112;16.280;2023-05-10T13:18:07;27.30;1.00
54788;DHT22;59598;48.112;16.280;2023-05-10T13:20:39;27.00;1.00
54788;DHT22;59598;48.112;16.280;2023-05-10T13:23:10;27.60;1.00
54788;DHT22;59598;48.112;16.280;2023-05-10T13:25:41;28.20;1.00
54788;DHT22;59598;48.112;16.280;2023-05-10T13:28:13;28.40;1.00
54788;DHT22;59598;48.112;16.280;2023-05-10T13:30:44;28.30;1.00
54788;DHT22;59598;48.112;16.280;2023-05-10T13:33:18;27.20;1.00
54788;DHT22;59598;48.112;16.280;2023-05-10T13:35:54;26.70;1.00
54788;DHT22;59598;48.112;16.280;2023-05-10T13:38:25;27.10;1.00
54788;DHT22;59598;48.112;16.280;2023-05-10T13:41:02;26.40;1.00
54788;DHT22;59598;48.112;16.280;2023-05-10T13:43:36;26.50;1.00
54788;DHT22;59598;48.112;16.280;2023-05-10T13:46:08;26.00;1.00
54788;DHT22;59598;48.112;16.280;2023-05-10T13:48:39;26.80;1.00
54788;DHT22;59598;48.112;16.280;2023-05-10T13:51:12;26.80;1.00
54788;DHT22;59598;48.112;16.280;2023-05-10T13:53:44;24.50;1.00
54788;DHT22;59598;48.112;16.280;2023-05-10T13:56:15;24.00;1.00
54788;DHT22;59598;48.112;16.280;2023-05-10T13:58:51;24.50;1.00
54788;DHT22;59598;48.112;16.280;2023-05-10T14:01:29;23.80;1.00
54788;DHT22;59598;48.112;16.280;2023-05-10T14:04:03;23.70;1.00
54788;DHT22;59598;48.112;16.280;2023-05-10T14:06:37;24.90;1.00
54788;DHT22;59598;48.112;16.280;2023-05-10T14:09:18;26.00;1.00
54788;DHT22;59598;48.112;16.280;2023-05-10T14:11:50;27.30;1.00
54788;DHT22;59598;48.112;16.280;2023-05-10T14:14:22;27.00;1.00
54788;DHT22;59598;48.112;16.280;2023-05-10T14:17:00;27.30;1.00
54788;DHT22;59598;48.112;16.280;2023-05-10T14:19:31;27.10;1.00
54788;DHT22;59598;48.112;16.280;2023-05-10T14:22:10;26.70;1.00
54788;DHT22;59598;48.112;16.280;2023-05-10T14:24:41;26.80;1.00
54788;DHT22;59598;48.112;16.280;2023-05-10T14:27:17;26.70;1.00
54788;DHT22;59598;48.112;16.280;2023-05-10T14:29:51;26.10;1.00
54788;DHT22;59598;48.112;16.280;2023-05-10T14:32:24;26.10;1.00
54788;DHT22;59598;48.112;16.280;2023-05-10T14:35:01;27.10;1.00
54788;DHT22;59598;48.112;16.280;2023-05-10T14:37:32;27.60;1.00
54788;DHT22;59598;48.112;16.280;2023-05-10T14:40:05;26.40;1.00
54788;DHT22;59598;48.112;16.280;2023-05-10T14:42:39;25.80;1.00
54788;DHT22;59598;48.112;16.280;2023-05-10T14:45:11;25.10;1.00
54788;DHT22;59598;48.112;16.280;2023-05-10T14:47:45;24.60;1.00
54788;DHT22;59598;48.112;16.280;2023-05-10T14:50:19;25.60;1.00
54788;DHT22;59598;48.112;16.280;2023-05-10T14:52:53;26.10;1.00
54788;DHT22;59598;48.112;16.280;2023-05-10T14:55:27;24.70;1.00
54788;DHT22;59598;48.112;16.280;2023-05-10T14:57:58;23.90;1.00
54788;DHT22;59598;48.112;16.280;2023-05-10T15:00:30;23.60;1.00
54788;DHT22;59598;48.112;16.280;2023-05-10T15:03:02;23.20;1.00
54788;DHT22;59598;48.112;16.280;2023-05-10T15:05:34;22.80;1.00
54788;DHT22;59598;48.112;16.280;2023-05-10T15:08:05;23.20;1.00
54788;DHT22;59598;48.112;16.280;2023-05-10T15:10:40;23.20;1.00
54788;DHT22;59598;48.112;16.280;2023-05-10T15:13:11;22.20;1.00
54788;DHT22;59598;48.112;16.280;2023-05-10T15:15:42;21.90;1.00
54788;DHT22;59598;48.112;16.280;2023-05-10T15:18:19;21.90;1.00
54788;DHT22;59598;48.112;16.280;2023-05-10T15:20:50;22.00;1.00
54788;DHT22;59598;48.112;16.280;2023-05-10T15:23:26;21.90;1.00
54788;DHT22;59598;48.112;16.280;2023-05-10T15:26:00;21.80;1.00
54788;DHT22;59598;48.112;16.280;2023-05-10T15:28:34;21.30;1.00
54788;DHT22;59598;48.112;16.280;2023-05-10T15:31:07;20.90;1.00
54788;DHT22;59598;48.112;16.280;2023-05-10T15:33:42;20.50;1.00
54788;DHT22;59598;48.112;16.280;2023-05-10T15:36:18;20.20;1.00
54788;DHT22;59598;48.112;16.280;2023-05-10T15:38:50;20.10;1.00
54788;DHT22;59598;48.112;16.280;2023-05-10T15:41:21;20.10;1.00
54788;DHT22;59598;48.112;16.280;2023-05-10T15:43:55;20.20;1.00
54788;DHT22;59598;48.112;16.280;2023-05-10T15:46:34;20.00;1.00
54788;DHT22;59598;48.112;16.280;2023-05-10T15:49:11;19.90;1.00
54788;DHT22;59598;48.112;16.280;2023-05-10T15:51:45;19.80;1.00
54788;DHT22;59598;48.112;16.280;2023-05-10T15:54:19;19.80;1.00
54788;DHT22;59598;48.112;16.280;2023-05-10T15:56:50;19.60;1.00
54788;DHT22;59598;48.112;16.280;2023-05-10T15:59:27;19.60;1.00
54788;DHT22;59598;48.112;16.280;2023-05-10T16:01:59;19.80;1.00
54788;DHT22;59598;48.112;16.280;2023-05-10T16:04:30;19.90;1.00
54788;DHT22;59598;48.112;16.280;2023-05-10T16:07:04;19.70;1.00
54788;DHT22;59598;48.112;16.280;2023-05-10T16:09:36;19.60;1.00
54788;DHT22;59598;48.112;16.280;2023-05-10T16:12:07;19.60;1.00
54788;DHT22;59598;48.112;16.280;2023-05-10T16:14:41;19.60;1.00
54788;DHT22;59598;48.112;16.280;2023-05-10T16:17:12;19.50;1.00
54788;DHT22;59598;48.112;16.280;2023-05-10T16:19:45;19.70;1.00
54788;DHT22;59598;48.112;16.280;2023-05-10T16:22:21;20.20;1.00
54788;DHT22;59598;48.112;16.280;2023-05-10T16:24:57;20.30;1.00
54788;DHT22;59598;48.112;16.280;2023-05-10T16:27:29;20.10;1.00
54788;DHT22;59598;48.112;16.280;2023-05-10T16:30:03;19.50;1.00
54788;DHT22;59598;48.112;16.280;2023-05-10T16:32:36;19.10;1.00
54788;DHT22;59598;48.112;16.280;2023-05-10T16:35:09;19.20;1.00
54788;DHT22;59598;48.112;16.280;2023-05-10T16:37:43;19.10;1.00
54788;DHT22;59598;48.112;16.280;2023-05-10T16:40:14;19.30;1.00
54788;DHT22;59598;48.112;16.280;2023-05-10T16:42:45;19.40;1.00
54788;DHT22;59598;48.112;16.280;2023-05-10T16:45:16;19.40;1.00
54788;DHT22;59598;48.112;16.280;2023-05-10T16:47:51;19.30;1.00
54788;DHT22;59598;48.112;16.280;2023-05-10T16:50:25;19.20;1.00
54788;DHT22;59598;48.112;16.280;2023-05-10T16:52:56;19.20;1.00
54788;DHT22;59598;48.112;16.280;2023-05-10T16:55:30;18.80;1.00
54788;DHT22;59598;48.112;16.280;2023-05-10T16:58:04;18.90;1.00
54788;DHT22;59598;48.112;16.280;2023-05-10T17:00:38;18.90;1.00
54788;DHT22;59598;48.112;16.280;2023-05-10T17:03:09;18.80;1.00
54788;DHT22;59598;48.112;16.280;2023-05-10T17:05:41;18.80;1.00
54788;DHT22;59598;48.112;16.280;2023-05-10T17:08:17;18.80;1.00
54788;DHT22;59598;48.112;16.280;2023-05-10T17:10:59;18.50;1.00
54788;DHT22;59598;48.112;16.280;2023-05-10T17:13:32;18.30;1.00
54788;DHT22;59598;48.112;16.280;2023-05-10T17:16:06;18.20;1.00
54788;DHT22;59598;48.112;16.280;2023-05-10T17:18:40;18.10;1.00
54788;DHT22;59598;48.112;16.280;2023-05-10T17:21:17;18.00;1.00